sensor_id;sensor_type;location;lat;lon;timestamp;temperature;humidity
52799;DHT22;38667;42.872;74.622;2023-08-21T00:01:53;23.10;36.70
52799;DHT22;38667;42.872;74.622;2023-08-21T00:04:19;23.20;36.20
52799;DHT22;38667;42.872;74.622;2023-08-21T00:06:46;23.30;36.70
52799;DHT22;38667;42.872;74.622;2023-08-21T00:09:12;23.30;36.20
52799;DHT22;38667;42.872;74.622;2023-08-21T00:11:40;23.50;35.60
52799;DHT22;38667;42.872;74.622;2023-08-21T00:14:06;23.50;35.50
52799;DHT22;38667;42.872;74.622;2023-08-21T00:16:33;23.50;35.60
52799;DHT22;38667;42.872;74.622;2023-08-21T00:18:59;23.50;35.50
52799;DHT22;38667;42.872;74.622;2023-08-21T00:21:25;23.50;35.70
52799;DHT22;38667;42.872;74.622;2023-08-21T00:23:51;23.50;36.00
52799;DHT22;38667;42.872;74.622;2023-08-21T00:26:18;23.40;36.70
52799;DHT22;38667;42.872;74.622;2023-08-21T00:28:46;23.40;36.60
52799;DHT22;38667;42.872;74.622;2023-08-21T00:31:12;23.40;37.20
52799;DHT22;38667;42.872;74.622;2023-08-21T00:33:38;23.30;36.40
52799;DHT22;38667;42.872;74.622;2023-08-21T00:36:05;23.30;37.90
52799;DHT22;38667;42.872;74.622;2023-08-21T00:38:31;23.10;38.00
52799;DHT22;38667;42.872;74.622;2023-08-21T00:40:57;23.00;40.60
52799;DHT22;38667;42.872;74.622;2023-08-21T00:43:24;22.90;39.60
52799;DHT22;38667;42.872;74.622;2023-08-21T00:45:52;22.70;41.30
52799;DHT22;38667;42.872;74.622;2023-08-21T00:48:19;22.60;42.00
52799;DHT22;38667;42.872;74.622;2023-08-21T00:50:46;22.50;40.80
52799;DHT22;38667;42.872;74.622;2023-08-21T00:53:13;22.50;41.50
52799;DHT22;38667;42.872;74.622;2023-08-21T00:55:39;22.30;43.80
52799;DHT22;38667;42.872;74.622;2023-08-21T00:58:06;22.20;43.00
52799;DHT22;38667;42.872;74.622;2023-08-21T01:00:34;22.30;43.00
52799;DHT22;38667;42.872;74.622;2023-08-21T01:03:03;22.30;43.60
52799;DHT22;38667;42.872;74.622;2023-08-21T01:05:30;22.30;43.10
52799;DHT22;38667;42.872;74.622;2023-08-21T01:07:59;22.40;42.70
52799;DHT22;38667;42.872;74.622;2023-08-21T01:10:45;22.40;43.50
52799;DHT22;38667;42.872;74.622;2023-08-21T01:13:26;22.40;43.60
52799;DHT22;38667;42.872;74.622;2023-08-21T01:15:54;22.40;45.40
52799;DHT22;38667;42.872;74.622;2023-08-21T01:18:23;22.40;46.90
52799;DHT22;38667;42.872;74.622;2023-08-21T01:20:50;22.30;46.80
52799;DHT22;38667;42.872;74.622;2023-08-21T01:23:41;22.30;47.10
52799;DHT22;38667;42.872;74.622;2023-08-21T01:26:07;22.20;47.50
52799;DHT22;38667;42.872;74.622;2023-08-21T01:28:34;22.20;47.50
52799;DHT22;38667;42.872;74.622;2023-08-21T01:31:05;22.10;47.30
52799;DHT22;38667;42.872;74.622;2023-08-21T01:33:37;22.10;47.40
52799;DHT22;38667;42.872;74.622;2023-08-21T01:36:05;22.20;47.50
52799;DHT22;38667;42.872;74.622;2023-08-21T01:38:34;22.20;47.30
52799;DHT22;38667;42.872;74.622;2023-08-21T01:41:00;22.30;48.30
52799;DHT22;38667;42.872;74.622;2023-08-21T01:43:26;22.30;49.10
52799;DHT22;38667;42.872;74.622;2023-08-21T01:45:53;22.50;48.60
52799;DHT22;38667;42.872;74.622;2023-08-21T01:48:19;22.50;48.10
52799;DHT22;38667;42.872;74.622;2023-08-21T01:50:45;22.60;48.10
52799;DHT22;38667;42.872;74.622;2023-08-21T01:53:12;22.70;48.10
52799;DHT22;38667;42.872;74.622;2023-08-21T01:55:40;22.80;49.20
52799;DHT22;38667;42.872;74.622;2023-08-21T01:58:06;22.80;49.10
52799;DHT22;38667;42.872;74.622;2023-08-21T02:03:07;23.00;49.90
52799;DHT22;38667;42.872;74.622;2023-08-21T02:12:47;23.20;47.60
52799;DHT22;38667;42.872;74.622;2023-08-21T02:15:13;23.40;47.20
52799;DHT22;38667;42.872;74.622;2023-08-21T02:17:40;23.40;47.20
52799;DHT22;38667;42.872;74.622;2023-08-21T02:20:07;23.50;46.60
52799;DHT22;38667;42.872;74.622;2023-08-21T02:22:34;23.60;45.50
52799;DHT22;38667;42.872;74.622;2023-08-21T02:25:00;23.70;45.00
52799;DHT22;38667;42.872;74.622;2023-08-21T02:27:26;23.80;44.50
52799;DHT22;38667;42.872;74.622;2023-08-21T02:29:54;24.00;44.20
52799;DHT22;38667;42.872;74.622;2023-08-21T02:32:21;24.00;44.00
52799;DHT22;38667;42.872;74.622;2023-08-21T02:34:47;24.10;43.90
52799;DHT22;38667;42.872;74.622;2023-08-21T02:37:13;24.20;43.70
52799;DHT22;38667;42.872;74.622;2023-08-21T02:39:40;24.30;43.50
52799;DHT22;38667;42.872;74.622;2023-08-21T02:42:06;24.50;43.20
52799;DHT22;38667;42.872;74.622;2023-08-21T02:44:33;24.50;43.10
52799;DHT22;38667;42.872;74.622;2023-08-21T02:47:00;24.60;43.10
52799;DHT22;38667;42.872;74.622;2023-08-21T02:49:27;24.70;42.90
52799;DHT22;38667;42.872;74.622;2023-08-21T02:51:53;24.80;42.60
52799;DHT22;38667;42.872;74.622;2023-08-21T02:54:19;24.90;42.60
52799;DHT22;38667;42.872;74.622;2023-08-21T02:56:46;24.90;42.40
52799;DHT22;38667;42.872;74.622;2023-08-21T02:59:12;25.00;42.00
52799;DHT22;38667;42.872;74.622;2023-08-21T03:01:38;25.10;41.80
52799;DHT22;38667;42.872;74.622;2023-08-21T03:04:06;25.20;41.40
52799;DHT22;38667;42.872;74.622;2023-08-21T03:06:33;25.30;41.00
52799;DHT22;38667;42.872;74.622;2023-08-21T03:08:59;25.30;40.70
52799;DHT22;38667;42.872;74.622;2023-08-21T03:11:25;25.40;40.40
52799;DHT22;38667;42.872;74.622;2023-08-21T03:13:52;25.50;40.00
52799;DHT22;38667;42.872;74.622;2023-08-21T03:16:18;25.60;39.40
52799;DHT22;38667;42.872;74.622;2023-08-21T03:18:58;25.60;38.80
52799;DHT22;38667;42.872;74.622;2023-08-21T03:21:26;25.70;38.30
52799;DHT22;38667;42.872;74.622;2023-08-21T03:23:55;25.70;37.80
52799;DHT22;38667;42.872;74.622;2023-08-21T03:26:21;25.80;37.70
52799;DHT22;38667;42.872;74.622;2023-08-21T03:28:48;25.80;37.80
52799;DHT22;38667;42.872;74.622;2023-08-21T03:31:14;25.90;37.80
52799;DHT22;38667;42.872;74.622;2023-08-21T03:33:41;25.90;37.70
52799;DHT22;38667;42.872;74.622;2023-08-21T03:36:07;26.00;38.20
52799;DHT22;38667;42.872;74.622;2023-08-21T03:38:35;26.00;38.00
52799;DHT22;38667;42.872;74.622;2023-08-21T03:41:02;26.10;37.70
52799;DHT22;38667;42.872;74.622;2023-08-21T03:43:28;26.10;37.60
52799;DHT22;38667;42.872;74.622;2023-08-21T03:45:54;26.10;37.80
52799;DHT22;38667;42.872;74.622;2023-08-21T03:48:21;26.20;38.00
52799;DHT22;38667;42.872;74.622;2023-08-21T03:50:48;26.20;37.70
52799;DHT22;38667;42.872;74.622;2023-08-21T03:53:14;26.30;37.30
52799;DHT22;38667;42.872;74.622;2023-08-21T03:55:42;26.40;37.00
52799;DHT22;38667;42.872;74.622;2023-08-21T03:58:08;26.40;37.00
52799;DHT22;38667;42.872;74.622;2023-08-21T04:00:35;26.40;37.00
52799;DHT22;38667;42.872;74.622;2023-08-21T04:03:01;26.50;37.10
52799;DHT22;38667;42.872;74.622;2023-08-21T04:05:28;26.50;36.90
52799;DHT22;38667;42.872;74.622;2023-08-21T04:07:54;26.50;37.10
52799;DHT22;38667;42.872;74.622;2023-08-21T04:10:20;26.60;37.00
52799;DHT22;38667;42.872;74.622;2023-08-21T04:12:48;26.60;36.80
52799;DHT22;38667;42.872;74.622;2023-08-21T04:15:15;26.70;36.80
52799;DHT22;38667;42.872;74.622;2023-08-21T04:17:44;26.70;36.60
52799;DHT22;38667;42.872;74.622;2023-08-21T04:20:11;26.80;36.50
52799;DHT22;38667;42.872;74.622;2023-08-21T04:22:38;26.80;36.50
52799;DHT22;38667;42.872;74.622;2023-08-21T04:25:04;26.90;36.40
52799;DHT22;38667;42.872;74.622;2023-08-21T04:27:31;26.90;36.00
52799;DHT22;38667;42.872;74.622;2023-08-21T04:29:59;27.00;36.30
52799;DHT22;38667;42.872;74.622;2023-08-21T04:32:25;27.00;36.40
52799;DHT22;38667;42.872;74.622;2023-08-21T04:34:51;27.10;36.70
52799;DHT22;38667;42.872;74.622;2023-08-21T04:37:18;27.10;36.90
52799;DHT22;38667;42.872;74.622;2023-08-21T04:39:44;27.20;36.10
52799;DHT22;38667;42.872;74.622;2023-08-21T04:42:10;27.20;35.90
52799;DHT22;38667;42.872;74.622;2023-08-21T04:44:37;27.30;35.60
52799;DHT22;38667;42.872;74.622;2023-08-21T04:47:23;27.30;35.40
52799;DHT22;38667;42.872;74.622;2023-08-21T04:49:50;27.40;35.50
52799;DHT22;38667;42.872;74.622;2023-08-21T04:52:16;27.50;35.90
52799;DHT22;38667;42.872;74.622;2023-08-21T04:54:43;27.50;35.40
52799;DHT22;38667;42.872;74.622;2023-08-21T04:57:09;27.60;34.90
52799;DHT22;38667;42.872;74.622;2023-08-21T04:59:35;27.60;34.60
52799;DHT22;38667;42.872;74.622;2023-08-21T05:02:02;27.70;35.00
52799;DHT22;38667;42.872;74.622;2023-08-21T05:04:30;27.70;34.80
52799;DHT22;38667;42.872;74.622;2023-08-21T05:06:56;27.80;34.70
52799;DHT22;38667;42.872;74.622;2023-08-21T05:09:22;27.90;34.20
52799;DHT22;38667;42.872;74.622;2023-08-21T05:11:49;27.90;31.80
52799;DHT22;38667;42.872;74.622;2023-08-21T05:14:15;28.00;32.50
52799;DHT22;38667;42.872;74.622;2023-08-21T05:16:41;28.10;33.70
52799;DHT22;38667;42.872;74.622;2023-08-21T05:19:08;28.40;33.70
52799;DHT22;38667;42.872;74.622;2023-08-21T05:21:35;28.60;31.00
52799;DHT22;38667;42.872;74.622;2023-08-21T05:24:02;28.80;29.40
52799;DHT22;38667;42.872;74.622;2023-08-21T05:26:28;28.90;30.20
52799;DHT22;38667;42.872;74.622;2023-08-21T05:28:55;29.00;30.20
52799;DHT22;38667;42.872;74.622;2023-08-21T05:31:21;29.00;30.70
52799;DHT22;38667;42.872;74.622;2023-08-21T05:33:48;29.00;30.30
52799;DHT22;38667;42.872;74.622;2023-08-21T05:36:14;29.00;30.80
52799;DHT22;38667;42.872;74.622;2023-08-21T05:38:42;28.90;31.00
52799;DHT22;38667;42.872;74.622;2023-08-21T05:41:08;28.90;31.40
52799;DHT22;38667;42.872;74.622;2023-08-21T05:43:35;29.00;31.00
52799;DHT22;38667;42.872;74.622;2023-08-21T05:46:01;29.10;31.40
52799;DHT22;38667;42.872;74.622;2023-08-21T05:48:27;29.30;31.30
52799;DHT22;38667;42.872;74.622;2023-08-21T05:50:54;29.60;31.10
52799;DHT22;38667;42.872;74.622;2023-08-21T05:53:20;29.90;29.40
52799;DHT22;38667;42.872;74.622;2023-08-21T05:55:48;30.00;29.40
52799;DHT22;38667;42.872;74.622;2023-08-21T05:58:15;30.10;29.90
52799;DHT22;38667;42.872;74.622;2023-08-21T06:00:41;30.10;29.80
52799;DHT22;38667;42.872;74.622;2023-08-21T06:03:07;30.10;29.40
52799;DHT22;38667;42.872;74.622;2023-08-21T06:05:33;30.20;28.40
52799;DHT22;38667;42.872;74.622;2023-08-21T06:08:00;30.20;27.40
52799;DHT22;38667;42.872;74.622;2023-08-21T06:10:26;30.20;28.20
52799;DHT22;38667;42.872;74.622;2023-08-21T06:12:54;30.10;28.40
52799;DHT22;38667;42.872;74.622;2023-08-21T06:15:20;30.00;28.50
52799;DHT22;38667;42.872;74.622;2023-08-21T06:17:47;30.00;28.50
52799;DHT22;38667;42.872;74.622;2023-08-21T06:20:13;30.00;28.70
52799;DHT22;38667;42.872;74.622;2023-08-21T06:22:40;30.10;29.40
52799;DHT22;38667;42.872;74.622;2023-08-21T06:25:07;30.10;29.80
52799;DHT22;38667;42.872;74.622;2023-08-21T06:27:33;30.10;30.00
52799;DHT22;38667;42.872;74.622;2023-08-21T06:30:01;30.10;30.50
52799;DHT22;38667;42.872;74.622;2023-08-21T06:32:28;30.00;30.80
52799;DHT22;38667;42.872;74.622;2023-08-21T06:34:54;30.00;31.20
52799;DHT22;38667;42.872;74.622;2023-08-21T06:37:20;30.00;31.50
52799;DHT22;38667;42.872;74.622;2023-08-21T06:39:47;30.00;32.00
52799;DHT22;38667;42.872;74.622;2023-08-21T06:42:13;30.10;32.10
52799;DHT22;38667;42.872;74.622;2023-08-21T06:44:39;30.30;31.90
52799;DHT22;38667;42.872;74.622;2023-08-21T06:47:07;31.00;29.90
52799;DHT22;38667;42.872;74.622;2023-08-21T06:49:33;31.90;29.40
52799;DHT22;38667;42.872;74.622;2023-08-21T06:52:01;32.10;29.70
52799;DHT22;38667;42.872;74.622;2023-08-21T06:54:27;31.90;29.70
52799;DHT22;38667;42.872;74.622;2023-08-21T06:56:54;31.70;28.40
52799;DHT22;38667;42.872;74.622;2023-08-21T06:59:20;31.70;29.20
52799;DHT22;38667;42.872;74.622;2023-08-21T07:01:46;31.60;29.60
52799;DHT22;38667;42.872;74.622;2023-08-21T07:04:14;31.70;29.80
52799;DHT22;38667;42.872;74.622;2023-08-21T07:06:40;31.60;28.80
52799;DHT22;38667;42.872;74.622;2023-08-21T07:09:07;31.50;29.20
52799;DHT22;38667;42.872;74.622;2023-08-21T07:11:33;31.40;29.40
52799;DHT22;38667;42.872;74.622;2023-08-21T07:13:59;31.20;29.70
52799;DHT22;38667;42.872;74.622;2023-08-21T07:16:26;31.20;30.00
52799;DHT22;38667;42.872;74.622;2023-08-21T07:18:52;31.30;30.10
52799;DHT22;38667;42.872;74.622;2023-08-21T07:21:20;31.20;29.80
52799;DHT22;38667;42.872;74.622;2023-08-21T07:23:47;31.30;29.80
52799;DHT22;38667;42.872;74.622;2023-08-21T07:26:13;31.40;29.70
52799;DHT22;38667;42.872;74.622;2023-08-21T07:28:39;31.40;29.20
52799;DHT22;38667;42.872;74.622;2023-08-21T07:31:06;31.50;28.30
52799;DHT22;38667;42.872;74.622;2023-08-21T07:33:32;31.50;28.30
52799;DHT22;38667;42.872;74.622;2023-08-21T07:36:00;31.50;27.60
52799;DHT22;38667;42.872;74.622;2023-08-21T07:38:28;31.50;26.60
52799;DHT22;38667;42.872;74.622;2023-08-21T07:41:03;31.70;27.90
52799;DHT22;38667;42.872;74.622;2023-08-21T07:43:29;31.70;27.20
52799;DHT22;38667;42.872;74.622;2023-08-21T07:45:55;31.80;27.70
52799;DHT22;38667;42.872;74.622;2023-08-21T07:48:22;31.90;27.90
52799;DHT22;38667;42.872;74.622;2023-08-21T07:50:51;32.20;28.10
52799;DHT22;38667;42.872;74.622;2023-08-21T07:53:18;32.50;27.60
52799;DHT22;38667;42.872;74.622;2023-08-21T07:55:45;32.60;28.20
52799;DHT22;38667;42.872;74.622;2023-08-21T07:58:12;32.80;27.30
52799;DHT22;38667;42.872;74.622;2023-08-21T08:00:38;33.00;27.10
52799;DHT22;38667;42.872;74.622;2023-08-21T08:03:05;32.90;26.20
52799;DHT22;38667;42.872;74.622;2023-08-21T08:05:31;33.00;27.60
52799;DHT22;38667;42.872;74.622;2023-08-21T08:07:58;33.20;27.30
52799;DHT22;38667;42.872;74.622;2023-08-21T08:10:24;33.00;26.30
52799;DHT22;38667;42.872;74.622;2023-08-21T08:12:52;33.00;27.00
52799;DHT22;38667;42.872;74.622;2023-08-21T08:15:18;32.80;26.10
52799;DHT22;38667;42.872;74.622;2023-08-21T08:17:45;32.70;26.30
52799;DHT22;38667;42.872;74.622;2023-08-21T08:20:11;32.50;27.00
52799;DHT22;38667;42.872;74.622;2023-08-21T08:22:38;32.40;26.00
52799;DHT22;38667;42.872;74.622;2023-08-21T08:25:06;32.30;25.20
52799;DHT22;38667;42.872;74.622;2023-08-21T08:27:32;32.20;27.10
52799;DHT22;38667;42.872;74.622;2023-08-21T08:30:00;32.10;26.70
52799;DHT22;38667;42.872;74.622;2023-08-21T08:32:27;32.10;27.20
52799;DHT22;38667;42.872;74.622;2023-08-21T08:34:53;32.20;27.10
52799;DHT22;38667;42.872;74.622;2023-08-21T08:37:20;32.30;28.30
52799;DHT22;38667;42.872;74.622;2023-08-21T08:39:47;32.40;27.40
52799;DHT22;38667;42.872;74.622;2023-08-21T08:42:14;32.60;27.60
52799;DHT22;38667;42.872;74.622;2023-08-21T08:44:42;32.70;27.50
52799;DHT22;38667;42.872;74.622;2023-08-21T08:47:10;33.00;26.60
52799;DHT22;38667;42.872;74.622;2023-08-21T08:49:37;33.00;26.60
52799;DHT22;38667;42.872;74.622;2023-08-21T08:52:04;33.80;24.80
52799;DHT22;38667;42.872;74.622;2023-08-21T08:54:31;34.80;26.40
52799;DHT22;38667;42.872;74.622;2023-08-21T08:56:58;34.80;25.20
52799;DHT22;38667;42.872;74.622;2023-08-21T08:59:24;34.80;26.00
52799;DHT22;38667;42.872;74.622;2023-08-21T09:01:51;35.60;25.30
52799;DHT22;38667;42.872;74.622;2023-08-21T09:04:19;35.90;24.30
52799;DHT22;38667;42.872;74.622;2023-08-21T09:06:47;35.40;25.20
52799;DHT22;38667;42.872;74.622;2023-08-21T09:09:13;35.50;24.50
52799;DHT22;38667;42.872;74.622;2023-08-21T09:11:43;35.30;24.10
52799;DHT22;38667;42.872;74.622;2023-08-21T09:14:10;34.50;25.00
52799;DHT22;38667;42.872;74.622;2023-08-21T09:16:37;34.10;25.60
52799;DHT22;38667;42.872;74.622;2023-08-21T09:19:03;33.90;25.80
52799;DHT22;38667;42.872;74.622;2023-08-21T09:21:31;33.70;24.00
52799;DHT22;38667;42.872;74.622;2023-08-21T09:23:58;33.40;24.60
52799;DHT22;38667;42.872;74.622;2023-08-21T09:26:25;33.40;25.30
52799;DHT22;38667;42.872;74.622;2023-08-21T09:28:52;33.40;25.70
52799;DHT22;38667;42.872;74.622;2023-08-21T09:31:22;33.30;26.10
52799;DHT22;38667;42.872;74.622;2023-08-21T09:33:55;33.20;26.30
52799;DHT22;38667;42.872;74.622;2023-08-21T09:36:22;33.10;26.10
52799;DHT22;38667;42.872;74.622;2023-08-21T09:38:51;33.00;25.40
52799;DHT22;38667;42.872;74.622;2023-08-21T09:41:20;33.00;26.00
52799;DHT22;38667;42.872;74.622;2023-08-21T09:43:46;33.10;26.90
52799;DHT22;38667;42.872;74.622;2023-08-21T09:46:15;33.10;25.60
52799;DHT22;38667;42.872;74.622;2023-08-21T09:48:42;33.20;25.90
52799;DHT22;38667;42.872;74.622;2023-08-21T09:51:10;33.90;24.50
52799;DHT22;38667;42.872;74.622;2023-08-21T09:53:37;34.80;23.50
52799;DHT22;38667;42.872;74.622;2023-08-21T09:56:05;35.30;23.10
52799;DHT22;38667;42.872;74.622;2023-08-21T09:58:32;36.10;23.10
52799;DHT22;38667;42.872;74.622;2023-08-21T10:00:59;36.90;22.30
52799;DHT22;38667;42.872;74.622;2023-08-21T10:03:25;37.00;22.20
52799;DHT22;38667;42.872;74.622;2023-08-21T10:05:54;35.70;22.10
52799;DHT22;38667;42.872;74.622;2023-08-21T10:08:25;34.80;24.10
52799;DHT22;38667;42.872;74.622;2023-08-21T10:10:51;34.10;23.70
52799;DHT22;38667;42.872;74.622;2023-08-21T10:13:19;33.60;24.10
52799;DHT22;38667;42.872;74.622;2023-08-21T10:15:46;34.00;24.50
52799;DHT22;38667;42.872;74.622;2023-08-21T10:18:20;34.30;23.80
52799;DHT22;38667;42.872;74.622;2023-08-21T10:20:47;34.00;23.20
52799;DHT22;38667;42.872;74.622;2023-08-21T10:23:24;33.50;23.50
52799;DHT22;38667;42.872;74.622;2023-08-21T10:25:55;33.30;25.00
52799;DHT22;38667;42.872;74.622;2023-08-21T10:28:23;33.10;25.80
52799;DHT22;38667;42.872;74.622;2023-08-21T10:30:49;33.00;23.40
52799;DHT22;38667;42.872;74.622;2023-08-21T10:33:15;32.80;23.80
52799;DHT22;38667;42.872;74.622;2023-08-21T10:35:42;32.80;23.90
52799;DHT22;38667;42.872;74.622;2023-08-21T10:38:12;32.80;24.10
52799;DHT22;38667;42.872;74.622;2023-08-21T10:40:40;32.80;24.90
52799;DHT22;38667;42.872;74.622;2023-08-21T10:43:41;32.70;24.70
52799;DHT22;38667;42.872;74.622;2023-08-21T10:46:08;32.70;25.40
52799;DHT22;38667;42.872;74.622;2023-08-21T10:48:34;32.70;24.90
52799;DHT22;38667;42.872;74.622;2023-08-21T10:51:02;32.60;25.40
52799;DHT22;38667;42.872;74.622;2023-08-21T10:53:28;32.60;25.30
52799;DHT22;38667;42.872;74.622;2023-08-21T10:55:55;32.60;25.90
52799;DHT22;38667;42.872;74.622;2023-08-21T10:58:22;32.50;25.80
52799;DHT22;38667;42.872;74.622;2023-08-21T11:00:56;32.50;26.30
52799;DHT22;38667;42.872;74.622;2023-08-21T11:03:22;32.40;26.40
52799;DHT22;38667;42.872;74.622;2023-08-21T11:06:01;32.40;26.10
52799;DHT22;38667;42.872;74.622;2023-08-21T11:08:28;32.40;25.50
52799;DHT22;38667;42.872;74.622;2023-08-21T11:10:54;32.30;25.20
52799;DHT22;38667;42.872;74.622;2023-08-21T11:13:23;32.40;23.80
52799;DHT22;38667;42.872;74.622;2023-08-21T11:15:50;32.30;25.50
52799;DHT22;38667;42.872;74.622;2023-08-21T11:18:30;32.30;24.70
52799;DHT22;38667;42.872;74.622;2023-08-21T11:21:04;32.30;25.10
52799;DHT22;38667;42.872;74.622;2023-08-21T11:23:32;32.20;25.20
52799;DHT22;38667;42.872;74.622;2023-08-21T11:25:59;32.20;25.20
52799;DHT22;38667;42.872;74.622;2023-08-21T11:28:25;32.20;25.80
52799;DHT22;38667;42.872;74.622;2023-08-21T11:30:52;32.30;25.40
52799;DHT22;38667;42.872;74.622;2023-08-21T11:33:18;32.20;24.00
52799;DHT22;38667;42.872;74.622;2023-08-21T11:35:46;32.10;24.20
52799;DHT22;38667;42.872;74.622;2023-08-21T11:38:16;32.10;24.60
52799;DHT22;38667;42.872;74.622;2023-08-21T11:40:50;32.20;25.20
52799;DHT22;38667;42.872;74.622;2023-08-21T11:43:16;32.40;25.90
52799;DHT22;38667;42.872;74.622;2023-08-21T11:45:45;32.60;25.50
52799;DHT22;38667;42.872;74.622;2023-08-21T11:48:12;32.70;25.20
52799;DHT22;38667;42.872;74.622;2023-08-21T11:50:39;32.70;25.90
52799;DHT22;38667;42.872;74.622;2023-08-21T11:53:06;32.80;25.30
52799;DHT22;38667;42.872;74.622;2023-08-21T11:55:34;32.80;24.40
52799;DHT22;38667;42.872;74.622;2023-08-21T11:58:02;32.80;24.70
52799;DHT22;38667;42.872;74.622;2023-08-21T12:00:29;32.70;24.80
52799;DHT22;38667;42.872;74.622;2023-08-21T12:02:56;32.60;26.30
52799;DHT22;38667;42.872;74.622;2023-08-21T12:05:23;32.60;26.60
52799;DHT22;38667;42.872;74.622;2023-08-21T12:07:49;32.40;25.90
52799;DHT22;38667;42.872;74.622;2023-08-21T12:10:24;32.30;25.20
52799;DHT22;38667;42.872;74.622;2023-08-21T12:12:50;32.40;24.50
52799;DHT22;38667;42.872;74.622;2023-08-21T12:15:16;32.40;25.80
52799;DHT22;38667;42.872;74.622;2023-08-21T12:17:43;32.30;26.20
52799;DHT22;38667;42.872;74.622;2023-08-21T12:20:10;32.20;26.30
52799;DHT22;38667;42.872;74.622;2023-08-21T12:22:37;32.10;26.50
52799;DHT22;38667;42.872;74.622;2023-08-21T12:25:04;32.10;26.70
52799;DHT22;38667;42.872;74.622;2023-08-21T12:27:32;32.10;27.40
52799;DHT22;38667;42.872;74.622;2023-08-21T12:29:58;32.20;25.10
52799;DHT22;38667;42.872;74.622;2023-08-21T12:32:24;32.30;26.50
52799;DHT22;38667;42.872;74.622;2023-08-21T12:34:51;32.30;27.50
52799;DHT22;38667;42.872;74.622;2023-08-21T12:37:17;32.10;27.60
52799;DHT22;38667;42.872;74.622;2023-08-21T12:39:43;32.10;26.60
52799;DHT22;38667;42.872;74.622;2023-08-21T12:42:10;32.00;25.40
52799;DHT22;38667;42.872;74.622;2023-08-21T12:44:37;32.10;25.10
52799;DHT22;38667;42.872;74.622;2023-08-21T12:47:04;32.00;25.20
52799;DHT22;38667;42.872;74.622;2023-08-21T12:49:30;32.00;25.80
52799;DHT22;38667;42.872;74.622;2023-08-21T12:51:56;31.90;25.00
52799;DHT22;38667;42.872;74.622;2023-08-21T12:54:23;31.90;25.60
52799;DHT22;38667;42.872;74.622;2023-08-21T12:56:49;31.80;25.70
52799;DHT22;38667;42.872;74.622;2023-08-21T12:59:15;31.60;25.80
52799;DHT22;38667;42.872;74.622;2023-08-21T13:01:43;31.50;25.70
52799;DHT22;38667;42.872;74.622;2023-08-21T13:04:09;31.40;26.20
52799;DHT22;38667;42.872;74.622;2023-08-21T13:06:36;31.50;25.80
52799;DHT22;38667;42.872;74.622;2023-08-21T13:09:02;31.40;26.20
52799;DHT22;38667;42.872;74.622;2023-08-21T13:11:28;31.30;26.80
52799;DHT22;38667;42.872;74.622;2023-08-21T13:13:55;31.30;25.80
52799;DHT22;38667;42.872;74.622;2023-08-21T13:16:21;31.30;26.20
52799;DHT22;38667;42.872;74.622;2023-08-21T13:18:49;31.30;26.00
52799;DHT22;38667;42.872;74.622;2023-08-21T13:21:15;31.20;25.80
52799;DHT22;38667;42.872;74.622;2023-08-21T13:23:41;31.30;25.60
52799;DHT22;38667;42.872;74.622;2023-08-21T13:26:08;31.30;25.90
52799;DHT22;38667;42.872;74.622;2023-08-21T13:28:34;31.30;25.60
52799;DHT22;38667;42.872;74.622;2023-08-21T13:31:00;31.30;25.70
52799;DHT22;38667;42.872;74.622;2023-08-21T13:33:27;31.30;26.30
52799;DHT22;38667;42.872;74.622;2023-08-21T13:35:54;31.30;25.20
52799;DHT22;38667;42.872;74.622;2023-08-21T13:38:21;31.40;25.30
52799;DHT22;38667;42.872;74.622;2023-08-21T13:40:47;31.30;25.50
52799;DHT22;38667;42.872;74.622;2023-08-21T13:43:13;31.30;25.50
52799;DHT22;38667;42.872;74.622;2023-08-21T13:45:40;31.20;25.50
52799;DHT22;38667;42.872;74.622;2023-08-21T13:48:06;31.10;25.90
52799;DHT22;38667;42.872;74.622;2023-08-21T13:50:33;31.20;26.40
52799;DHT22;38667;42.872;74.622;2023-08-21T13:53:00;31.10;27.00
52799;DHT22;38667;42.872;74.622;2023-08-21T13:55:27;31.10;26.30
52799;DHT22;38667;42.872;74.622;2023-08-21T13:57:53;31.10;26.80
52799;DHT22;38667;42.872;74.622;2023-08-21T14:00:19;31.00;26.80
52799;DHT22;38667;42.872;74.622;2023-08-21T14:02:46;30.90;25.80
52799;DHT22;38667;42.872;74.622;2023-08-21T14:05:12;30.90;26.60
52799;DHT22;38667;42.872;74.622;2023-08-21T14:07:38;30.80;26.10
52799;DHT22;38667;42.872;74.622;2023-08-21T14:10:07;30.70;26.40
52799;DHT22;38667;42.872;74.622;2023-08-21T14:12:34;30.50;27.10
52799;DHT22;38667;42.872;74.622;2023-08-21T14:15:00;30.50;26.90
52799;DHT22;38667;42.872;74.622;2023-08-21T14:17:27;30.50;26.90
52799;DHT22;38667;42.872;74.622;2023-08-21T14:19:53;30.60;27.10
52799;DHT22;38667;42.872;74.622;2023-08-21T14:22:20;30.50;26.60
52799;DHT22;38667;42.872;74.622;2023-08-21T14:24:46;30.50;26.70
52799;DHT22;38667;42.872;74.622;2023-08-21T14:27:14;30.30;26.90
52799;DHT22;38667;42.872;74.622;2023-08-21T14:29:41;30.40;27.00
52799;DHT22;38667;42.872;74.622;2023-08-21T14:32:08;30.30;26.90
52799;DHT22;38667;42.872;74.622;2023-08-21T14:34:34;30.30;26.90
52799;DHT22;38667;42.872;74.622;2023-08-21T14:37:00;30.20;27.30
52799;DHT22;38667;42.872;74.622;2023-08-21T14:39:27;30.10;27.40
52799;DHT22;38667;42.872;74.622;2023-08-21T14:41:57;30.00;27.90
52799;DHT22;38667;42.872;74.622;2023-08-21T14:44:25;30.00;27.80
52799;DHT22;38667;42.872;74.622;2023-08-21T14:46:52;30.10;28.00
52799;DHT22;38667;42.872;74.622;2023-08-21T14:49:18;30.00;27.80
52799;DHT22;38667;42.872;74.622;2023-08-21T14:51:45;30.10;27.60
52799;DHT22;38667;42.872;74.622;2023-08-21T14:54:11;30.20;28.00
52799;DHT22;38667;42.872;74.622;2023-08-21T14:56:38;29.90;28.60
52799;DHT22;38667;42.872;74.622;2023-08-21T14:59:04;29.70;30.60
52799;DHT22;38667;42.872;74.622;2023-08-21T15:01:32;29.50;30.20
52799;DHT22;38667;42.872;74.622;2023-08-21T15:03:58;29.40;29.90
52799;DHT22;38667;42.872;74.622;2023-08-21T15:06:24;29.40;29.70
52799;DHT22;38667;42.872;74.622;2023-08-21T15:08:51;29.40;29.20
52799;DHT22;38667;42.872;74.622;2023-08-21T15:11:17;29.40;28.50
52799;DHT22;38667;42.872;74.622;2023-08-21T15:13:43;29.50;28.20
52799;DHT22;38667;42.872;74.622;2023-08-21T15:16:10;29.60;28.00
52799;DHT22;38667;42.872;74.622;2023-08-21T15:18:37;29.50;28.00
52799;DHT22;38667;42.872;74.622;2023-08-21T15:21:04;29.30;28.10
52799;DHT22;38667;42.872;74.622;2023-08-21T15:23:30;29.20;28.20
52799;DHT22;38667;42.872;74.622;2023-08-21T15:25:56;29.20;28.80